Clearmont, Wyoming
Current Conditions -  °F | °C
As of 5:53 AM on Tuesday 21 Oct 2014 (Local Time) from KBYG Reporting Station
Clear Clear  
Wind Chill: 53°   Ceiling: Unl
Heat Index: 53°   Visibility: 10mi
Dew Point: 28°   Wind: 6mph
Humidity: 38%   Direction: 260°W
Pressure: 29.85"   Gusts: NA
Location:  44.64°N, 106.38°W
Report Text: KBYG 211153Z AUTO 26005KT 10SM CLR 12/M02 A2985 RMK AO2 SLP066 T01171022 10150 20089 56005
Loading
Personal Weather Stations






























Interactive Weather Map
Tropical Storm Tracking
New forecast layout! Learn more

10-Day Weather Forecast

Advertisements
Track Severe Weather on mobile